Storm Eleanor: stormy conditions with heavy wind and rain are to be expected today and tomorrow

4
567

Storm Eleanor will hit the United Kingdom today and the European mainland tomorrow 3 January. The UK MET Office has issued a yellow warning for London and South East England.

As Eleanor is moving eastwards towards Europe, strong and at time gusty winds are also to be expected. The weather forecast for Brussels Airport for tomorrow morning, with winds up to 100 km/h.

TAF :
EBBR 021103Z 0212/0318 21012KT 9999 SCT020 TEMPO 0215/0221 4000 RA RADZ SCT008 BKN012
TEMPO 0218/0220 24015G25KT
PROB30 TEMPO 0218/0223 BKN008
TEMPO 0300/0304 21022G40KT 4000 RA SHRA SCT009 BKN014CB
PROB30 TEMPO 0302/0306 24024G50KT 2500 TSRA SCT009 BKN014CB
BECMG 0303/0305 26022G40KT
PROB30 TEMPO 0312/0316 3000 SHRA TSRA SCT009 BKN014CB

Forecast for tomorrow 03JAN at 09:00 UTC, winds at surface level.
blank
700 hPa, +/- FL100
blank
250 hPa, about FL340

Thanks to Homo Aeroportus for the contribution in our forums.

4 COMMENTS

LEAVE A REPLY

Please enter your comment!
Please enter your name here

This site uses Akismet to reduce spam. Learn how your comment data is processed.